Huvudsida
METAR-TAF:

METAR-TAF

Flygplatser :

Bergamo-Orio al Serios internationella flygplats

Bergamo, Italien

latitud: 45-40N, longitud: 009-42E, höjd: 238 m

Aktuellt väderrapport

Denna rapport gjordes för 24 minuter sedan, klockan 03:20 UTC
Vind 4 kt från nord, varierande mellan nordväst och nord/nordost
Temperatur 19°C
Fuktighet 78%
Tryck 1013 hPa
Sikt 10 km eller mer
Spridda moln på en höjd av 10000 ft

METAR: LIME 200320Z 35004KT 310V020 9999 SCT100 19/15 Q1013 NOSIG

Tid: 05:44 (03:44 UTC)

Väderprognos

Denna rapport gjordes för 4 timmar och 44 minuter sedan, klockan 23:00 UTC
Prognos gäller från 20 kl. 00 UTC till 20 kl. 24 UTC
Vind 5 kt varierande vindriktning
Sikt 10 km eller mer
Inga moln under 1 500 m eller inga cumulonimbus
Sannolikhet 40% :
Temporärt
från 20 kl. 12 UTC till 20 kl. 18 UTC
åska, regn

TAF: LIME 192300Z 2000/2024 VRB05KT CAVOK PROB40 TEMPO 2012/2018 TSRA

Aktuella väderrapporter och prognoser från 4000 flygplatser (METAR- och TAF-rapporter).

De tillgängliga stationerna syns som gula och röda prickar på kartan.

För musen över prickarna för att se namnen på stationerna.

Klicka sedan för att få väderrapporter och prognoser.

För att ändra kartan: Klicka på de gröna knapparna med ett svart kors på för att zooma in; den gröna knappen med ett streck på för att zooma ut; eller på de gröna pilarna för angränsande kartor.


METAR-TAF: